createdAt,value
2022-09-20T00:11:58.037Z,100.00
2022-09-20T00:26:59.937Z,100.00
2022-09-20T00:42:01.910Z,100.00
2022-09-20T00:57:03.939Z,100.00
2022-09-20T01:12:07.819Z,100.00
2022-09-20T01:27:22.389Z,100.00
2022-09-20T01:42:26.528Z,100.00
2022-09-20T01:57:28.437Z,100.00
2022-09-20T02:12:41.141Z,100.00
2022-09-20T02:28:02.115Z,100.00
2022-09-20T02:43:22.857Z,100.00
2022-09-20T02:58:57.171Z,100.00
2022-09-20T03:14:22.914Z,100.00
2022-09-20T03:29:38.457Z,100.00
2022-09-20T03:44:44.502Z,100.00
2022-09-20T03:59:54.151Z,100.00
2022-09-20T04:14:55.955Z,100.00
2022-09-20T04:30:14.817Z,100.00
2022-09-20T04:45:22.724Z,100.00
2022-09-20T05:00:24.680Z,100.00
2022-09-20T05:15:36.359Z,100.00
2022-09-20T05:30:51.966Z,100.00
2022-09-20T05:46:03.139Z,100.00
2022-09-20T06:01:23.480Z,100.00
2022-09-20T06:16:28.127Z,100.00
2022-09-20T06:31:29.987Z,100.00
2022-09-20T06:46:32.932Z,100.00
2022-09-20T07:01:34.836Z,100.00
2022-09-20T07:16:37.210Z,100.00
2022-09-20T07:31:39.163Z,100.00
2022-09-20T07:46:41.066Z,100.00
2022-09-20T08:01:42.911Z,100.00
2022-09-20T08:16:45.760Z,100.00
2022-09-20T08:31:48.027Z,100.00
2022-09-20T08:46:50.068Z,100.00
2022-09-20T09:01:51.992Z,95.72
2022-09-20T09:16:54.655Z,100.00
2022-09-20T09:31:56.702Z,100.00
2022-09-20T09:46:58.606Z,100.00
2022-09-20T10:02:11.382Z,100.00
2022-09-20T10:17:16.054Z,100.00
2022-09-20T10:32:37.413Z,100.00
2022-09-20T10:47:43.402Z,74.88
2022-09-20T11:03:04.225Z,60.79
2022-09-20T11:18:23.096Z,62.33
2022-09-20T11:33:26.716Z,56.62
2022-09-20T11:48:36.363Z,56.32
2022-09-20T12:03:41.844Z,50.83
2022-09-20T12:18:53.862Z,92.75
2022-09-20T12:33:59.162Z,100.00
2022-09-20T12:49:40.897Z,100.00
2022-09-20T13:04:55.364Z,100.00
2022-09-20T13:19:57.928Z,100.00
2022-09-20T13:35:12.055Z,100.00
2022-09-20T13:50:23.140Z,100.00
2022-09-20T14:05:25.799Z,86.59
2022-09-20T14:20:29.493Z,95.36
2022-09-20T14:35:31.381Z,87.06
2022-09-20T14:50:34.062Z,89.36
2022-09-20T15:05:36.103Z,86.71
2022-09-20T15:20:37.994Z,92.88
2022-09-20T15:35:40.256Z,100.00
2022-09-20T15:50:42.966Z,100.00
2022-09-20T16:05:44.860Z,100.00
2022-09-20T16:20:46.755Z,100.00
2022-09-20T16:35:48.619Z,100.00
2022-09-20T16:50:54.218Z,100.00
2022-09-20T17:06:02.997Z,100.00
2022-09-20T17:21:05.262Z,100.00
2022-09-20T17:36:07.622Z,100.00
2022-09-20T17:51:12.553Z,100.00
2022-09-20T18:06:15.628Z,100.00
2022-09-20T18:21:18.282Z,100.00
2022-09-20T18:36:20.298Z,100.00
2022-09-20T18:51:24.182Z,100.00
2022-09-20T19:06:26.101Z,100.00
2022-09-20T19:21:30.368Z,100.00
2022-09-20T19:36:39.593Z,100.00
2022-09-20T19:51:42.696Z,100.00
2022-09-20T20:06:50.744Z,100.00
2022-09-20T20:21:53.743Z,100.00
2022-09-20T20:37:00.779Z,100.00
2022-09-20T20:52:04.752Z,100.00
2022-09-20T21:07:06.962Z,100.00
2022-09-20T21:22:10.009Z,100.00
2022-09-20T21:37:12.088Z,100.00
2022-09-20T21:52:14.219Z,100.00
2022-09-20T22:07:16.492Z,100.00
2022-09-20T22:22:18.379Z,100.00
2022-09-20T22:37:20.376Z,100.00
2022-09-20T22:52:22.243Z,100.00
2022-09-20T23:07:24.150Z,100.00
2022-09-20T23:22:26.012Z,100.00
2022-09-20T23:37:27.941Z,100.00
2022-09-20T23:52:30.322Z,100.00
